Time;durP1;ratioP1;P1;durP2;ratioP2;P2;SDS_P1;SDS_P2;PMS_P1;PMS_P2;Temp;Humidity;BMP_temperature;BMP_pressure;BME280_temperature;BME280_humidity;BME280_pressure;Samples;Min_cycle;Max_cycle;Signal;HPM_P1;HPM_P2
2023/07/31 00:00:14;;;;;;;0.60;0.60;;;16.10;99.90;;;;;;5068541;28;20657;-86
2023/07/31 00:02:42;;;;;;;1.13;0.80;;;16.00;99.90;;;;;;5072658;28;20258;-88
2023/07/31 00:05:09;;;;;;;0.70;0.63;;;16.00;99.90;;;;;;5043294;28;20649;-87
2023/07/31 00:07:36;;;;;;;1.57;0.80;;;16.00;99.90;;;;;;5053778;28;20200;-85
2023/07/31 00:10:03;;;;;;;0.80;0.60;;;16.10;99.90;;;;;;5055243;28;20193;-85
2023/07/31 00:12:30;;;;;;;1.67;0.80;;;16.10;99.90;;;;;;5054270;28;20536;-86
2023/07/31 00:14:57;;;;;;;2.43;0.73;;;16.20;99.90;;;;;;5072078;28;20255;-86
2023/07/31 00:17:24;;;;;;;1.00;0.60;;;16.10;99.90;;;;;;5071406;28;20200;-86
2023/07/31 00:19:51;;;;;;;1.03;0.60;;;16.10;99.90;;;;;;5053048;28;20204;-88
2023/07/31 00:22:18;;;;;;;0.63;0.50;;;16.20;99.90;;;;;;5054763;28;20291;-87
2023/07/31 00:24:45;;;;;;;0.38;0.38;;;16.00;99.90;;;;;;5055699;28;20260;-86
2023/07/31 00:27:12;;;;;;;0.70;0.70;;;16.10;99.90;;;;;;5058695;28;20219;-87
2023/07/31 00:29:39;;;;;;;0.60;0.60;;;16.10;99.90;;;;;;5073949;28;20197;-88
2023/07/31 00:32:07;;;;;;;0.97;0.60;;;16.10;99.90;;;;;;5056864;28;20239;-87
2023/07/31 00:34:33;;;;;;;0.67;0.50;;;16.10;99.90;;;;;;5054100;28;20542;-87
2023/07/31 00:37:00;;;;;;;0.70;0.70;;;16.10;99.90;;;;;;5047361;28;20220;-87
2023/07/31 00:39:27;;;;;;;0.80;0.80;;;16.20;99.90;;;;;;5055891;28;20295;-86
2023/07/31 00:41:55;;;;;;;0.57;0.57;;;16.20;99.90;;;;;;5069930;28;20610;-88
2023/07/31 00:44:22;;;;;;;0.60;0.60;;;16.10;99.90;;;;;;5072100;28;20231;-89
2023/07/31 00:46:49;;;;;;;0.60;0.50;;;16.10;99.90;;;;;;5068366;28;20290;-85
2023/07/31 00:49:17;;;;;;;1.37;0.70;;;16.10;99.90;;;;;;5069580;28;20201;-87
2023/07/31 00:51:45;;;;;;;0.70;0.70;;;16.10;99.90;;;;;;5060141;28;20977;-88
2023/07/31 00:54:16;;;;;;;1.20;0.90;;;16.20;99.90;;;;;;5049721;28;20209;-90
2023/07/31 00:56:45;;;;;;;1.90;0.80;;;16.20;99.90;;;;;;5058561;28;20240;-89
2023/07/31 00:59:12;;;;;;;1.10;0.80;;;16.20;99.90;;;;;;5050229;28;20209;-88
2023/07/31 01:01:40;;;;;;;1.60;0.70;;;16.20;99.90;;;;;;5054058;28;20216;-84
2023/07/31 01:04:07;;;;;;;0.70;0.70;;;16.20;99.90;;;;;;5079128;28;20231;-82
2023/07/31 01:06:56;;;;;;;1.73;1.45;;;16.20;99.90;;;;;;5069818;28;20198;-83
2023/07/31 01:09:45;;;;;;;1.30;0.87;;;16.20;99.90;;;;;;5062475;28;20675;-81
2023/07/31 01:12:16;;;;;;;1.97;0.67;;;16.20;99.90;;;;;;5068947;28;20216;-81
2023/07/31 01:15:03;;;;;;;1.60;0.70;;;16.30;99.90;;;;;;5062135;28;20608;-80
2023/07/31 01:17:30;;;;;;;2.00;0.83;;;16.20;99.90;;;;;;5069804;28;20265;-80
2023/07/31 01:20:01;;;;;;;1.07;0.73;;;16.20;99.90;;;;;;5067096;28;20204;-82
2023/07/31 01:23:01;;;;;;;2.40;0.90;;;16.40;99.90;;;;;;5059349;28;20205;-82
2023/07/31 01:26:05;;;;;;;1.10;1.00;;;16.30;99.90;;;;;;5064611;28;20671;-81
2023/07/31 01:28:47;;;;;;;2.37;0.93;;;16.40;99.90;;;;;;5049479;28;20250;-82
2023/07/31 01:31:18;;;;;;;2.07;1.10;;;16.40;99.90;;;;;;5039614;28;20255;-85
2023/07/31 01:33:45;;;;;;;1.83;1.30;;;16.40;99.90;;;;;;5046626;28;20208;-86
2023/07/31 01:36:13;;;;;;;2.58;1.00;;;16.50;99.90;;;;;;5050143;28;20325;-84
2023/07/31 01:38:40;;;;;;;3.80;1.50;;;16.50;99.90;;;;;;5048870;28;20205;-84
2023/07/31 01:41:07;;;;;;;3.72;1.20;;;16.50;99.90;;;;;;5049215;28;20202;-84
2023/07/31 01:43:33;;;;;;;1.73;1.20;;;16.60;99.90;;;;;;5049247;28;20225;-82
2023/07/31 01:46:00;;;;;;;3.63;1.40;;;16.50;99.90;;;;;;5049832;28;20267;-83
2023/07/31 01:48:27;;;;;;;2.22;1.50;;;16.60;99.90;;;;;;5048995;28;20249;-82
2023/07/31 01:50:54;;;;;;;2.97;1.80;;;16.50;99.90;;;;;;5038277;28;20209;-82
2023/07/31 01:53:21;;;;;;;6.60;2.60;;;16.50;99.90;;;;;;5049580;28;20205;-80
2023/07/31 01:55:48;;;;;;;3.53;1.90;;;16.40;99.90;;;;;;5048773;28;20204;-83
2023/07/31 01:58:15;;;;;;;3.80;2.10;;;16.40;99.90;;;;;;5048306;28;20267;-83
2023/07/31 02:00:41;;;;;;;4.43;2.10;;;16.40;99.90;;;;;;5037583;28;20190;-83
2023/07/31 02:03:09;;;;;;;3.90;2.25;;;16.40;99.90;;;;;;5031713;28;20284;-86
2023/07/31 02:05:43;;;;;;;4.68;2.70;;;16.40;99.90;;;;;;5057465;28;20724;-84
2023/07/31 02:08:10;;;;;;;4.30;2.70;;;16.30;99.90;;;;;;5054796;28;20647;-87
2023/07/31 02:10:37;;;;;;;3.07;2.10;;;16.30;99.90;;;;;;5056897;28;20220;-87
2023/07/31 02:13:04;;;;;;;7.78;2.67;;;16.40;99.90;;;;;;5057065;28;20224;-88
2023/07/31 02:15:31;;;;;;;3.83;2.15;;;16.40;99.90;;;;;;5050204;28;20197;-88
2023/07/31 02:17:58;;;;;;;7.00;2.20;;;16.40;99.90;;;;;;5051361;28;20552;-88
2023/07/31 02:20:28;;;;;;;3.38;2.22;;;16.40;99.90;;;;;;5046695;28;20730;-87
2023/07/31 02:22:55;;;;;;;3.38;2.03;;;16.50;99.90;;;;;;5050007;28;20688;-87
2023/07/31 02:25:23;;;;;;;6.20;2.70;;;16.50;99.90;;;;;;5050864;28;20197;-87
2023/07/31 02:27:50;;;;;;;5.70;2.33;;;16.50;99.90;;;;;;5049046;28;20285;-87
2023/07/31 02:30:17;;;;;;;6.13;3.10;;;16.60;99.90;;;;;;5047421;28;20219;-85
2023/07/31 02:32:44;;;;;;;5.88;2.10;;;16.50;99.90;;;;;;5050345;28;20213;-87
2023/07/31 02:35:15;;;;;;;4.97;2.80;;;16.60;99.90;;;;;;5038642;28;20340;-88
2023/07/31 02:37:42;;;;;;;5.78;2.20;;;16.50;99.90;;;;;;5050464;28;20636;-88
2023/07/31 02:40:10;;;;;;;5.28;2.38;;;16.60;99.90;;;;;;5047048;28;20201;-88
2023/07/31 02:42:37;;;;;;;8.60;2.90;;;16.60;99.90;;;;;;5052211;28;20303;-90
2023/07/31 02:45:04;;;;;;;7.18;3.10;;;16.60;99.90;;;;;;5057484;28;20624;-87
2023/07/31 02:47:31;;;;;;;6.50;3.08;;;16.60;99.90;;;;;;5049639;28;20590;-88
2023/07/31 02:49:59;;;;;;;4.28;2.70;;;16.60;99.90;;;;;;5054902;28;20268;-86
2023/07/31 02:52:26;;;;;;;9.95;3.72;;;16.60;99.90;;;;;;5052949;28;20664;-87
2023/07/31 02:54:53;;;;;;;7.18;3.85;;;16.70;99.90;;;;;;5042314;28;20209;-88
2023/07/31 02:57:20;;;;;;;10.35;3.78;;;16.70;99.90;;;;;;5070566;28;20213;-85
2023/07/31 02:59:47;;;;;;;8.43;3.30;;;16.80;99.90;;;;;;5057447;28;20674;-86
2023/07/31 03:02:17;;;;;;;6.55;3.80;;;16.80;99.90;;;;;;5070557;28;20268;-87
2023/07/31 03:04:44;;;;;;;11.57;4.60;;;16.80;99.90;;;;;;5053686;28;20224;-88
2023/07/31 03:07:11;;;;;;;13.60;5.45;;;16.80;99.90;;;;;;5067534;28;20327;-87
2023/07/31 03:09:39;;;;;;;20.27;6.13;;;16.80;99.90;;;;;;5051046;28;20228;-87
2023/07/31 03:12:08;;;;;;;16.63;6.43;;;16.80;99.90;;;;;;5051838;28;20231;-89
2023/07/31 03:14:34;;;;;;;13.07;6.40;;;16.90;99.90;;;;;;5073101;28;20192;-85
2023/07/31 03:17:01;;;;;;;17.55;6.43;;;16.90;99.90;;;;;;5053098;28;20542;-87
2023/07/31 03:19:31;;;;;;;13.60;6.45;;;16.90;99.90;;;;;;5074248;28;20608;-86
2023/07/31 03:21:59;;;;;;;15.63;6.88;;;17.00;99.90;;;;;;5054971;28;20215;-87
2023/07/31 03:24:26;;;;;;;19.10;6.45;;;16.90;99.90;;;;;;5057614;28;20232;-87
2023/07/31 03:26:53;;;;;;;15.82;5.78;;;16.90;99.90;;;;;;5057380;28;20223;-89
2023/07/31 03:29:20;;;;;;;21.02;6.07;;;16.90;99.90;;;;;;5058710;28;20200;-87
2023/07/31 03:31:51;;;;;;;20.20;6.93;;;16.90;99.90;;;;;;5063632;28;20204;-88
2023/07/31 03:34:18;;;;;;;16.20;6.43;;;17.00;99.90;;;;;;5057818;28;20231;-90
2023/07/31 03:36:48;;;;;;;19.85;6.80;;;16.90;99.90;;;;;;5063595;28;20293;-88
2023/07/31 03:39:25;;;;;;;16.25;7.05;;;16.90;99.90;;;;;;5068529;28;20228;-87
2023/07/31 03:41:54;;;;;;;21.13;7.50;;;17.10;99.90;;;;;;5062206;28;20220;-90
2023/07/31 03:44:25;;;;;;;25.73;7.57;;;16.90;99.90;;;;;;5057505;28;20229;-89
2023/07/31 03:46:56;;;;;;;20.00;6.90;;;16.70;99.90;;;;;;5055736;28;20205;-90
2023/07/31 03:49:24;;;;;;;24.05;7.80;;;16.90;99.90;;;;;;5060454;28;20649;-91
2023/07/31 03:51:56;;;;;;;20.20;7.47;;;16.90;99.90;;;;;;5064342;28;20197;-89
2023/07/31 03:54:29;;;;;;;22.10;7.63;;;16.90;99.90;;;;;;5067840;28;20204;-89
2023/07/31 03:56:59;;;;;;;23.27;7.30;;;16.90;99.90;;;;;;5071433;28;20188;-91
2023/07/31 03:59:28;;;;;;;21.60;8.73;;;16.90;99.90;;;;;;5071885;28;20200;-90
2023/07/31 04:02:03;;;;;;;18.63;7.57;;;16.90;99.90;;;;;;5063598;28;20253;-90
2023/07/31 04:04:30;;;;;;;19.80;7.32;;;16.90;99.90;;;;;;5057079;28;20271;-91
2023/07/31 04:07:03;;;;;;;21.40;7.82;;;16.90;99.90;;;;;;5065325;28;20288;-92
2023/07/31 04:09:38;;;;;;;25.92;8.38;;;16.90;99.90;;;;;;5075485;28;20212;-90
2023/07/31 04:12:06;;;;;;;24.40;7.18;;;16.90;99.90;;;;;;5053887;28;20217;-90
2023/07/31 04:14:38;;;;;;;19.15;7.53;;;16.90;99.90;;;;;;5051483;28;20197;-89
2023/07/31 04:17:16;;;;;;;18.08;8.27;;;16.90;99.90;;;;;;5047641;28;20200;-90
2023/07/31 04:19:59;;;;;;;19.23;7.25;;;16.80;99.90;;;;;;5085862;28;20205;-91
2023/07/31 04:22:32;;;;;;;22.92;7.40;;;16.70;99.90;;;;;;5076825;28;20196;-91
2023/07/31 04:25:07;;;;;;;22.05;7.20;;;16.80;99.90;;;;;;5069287;28;20231;-89
2023/07/31 04:27:43;;;;;;;24.85;6.97;;;16.80;99.90;;;;;;5079369;28;20257;-88
2023/07/31 04:30:42;;;;;;;18.17;7.65;;;16.80;99.90;;;;;;5068398;28;20197;-87
2023/07/31 04:33:41;;;;;;;18.38;7.32;;;16.70;99.90;;;;;;5091778;28;20279;-91
2023/07/31 04:36:26;;;;;;;18.30;6.55;;;16.70;99.90;;;;;;5075609;28;20259;-90
2023/07/31 04:39:06;;;;;;;24.27;7.38;;;16.80;99.90;;;;;;5070424;28;20617;-91
2023/07/31 04:41:34;;;;;;;19.45;7.25;;;16.80;99.90;;;;;;5083155;28;20209;-91
2023/07/31 04:44:11;;;;;;;25.45;7.63;;;16.80;99.90;;;;;;5070209;28;20221;-91
2023/07/31 04:47:16;;;;;;;14.65;6.40;;;16.70;99.90;;;;;;5065854;28;20236;-93
2023/07/31 04:50:21;;;;;;;18.65;7.25;;;16.70;99.90;;;;;;5069682;28;20317;-91
2023/07/31 04:52:58;;;;;;;13.82;5.75;;;16.70;99.90;;;;;;5061002;28;20201;-87
2023/07/31 04:55:25;;;;;;;18.48;6.70;;;16.70;99.90;;;;;;5054118;28;20198;-89
2023/07/31 04:57:55;;;;;;;20.58;6.65;;;16.60;99.90;;;;;;5067792;28;20233;-89
2023/07/31 05:00:26;;;;;;;22.50;7.53;;;16.60;99.90;;;;;;5057496;28;20308;-92
2023/07/31 05:03:22;;;;;;;21.15;7.53;;;16.60;99.90;;;;;;5062542;28;20197;-92
2023/07/31 05:06:22;;;;;;;21.08;7.05;;;16.70;99.90;;;;;;5068685;28;20196;-91
2023/07/31 05:08:57;;;;;;;22.63;6.93;;;16.70;99.90;;;;;;5053157;28;20192;-89
2023/07/31 05:11:32;;;;;;;20.45;6.95;;;16.90;99.90;;;;;;5058269;28;20219;-89
2023/07/31 05:14:32;;;;;;;16.05;6.07;;;16.70;99.90;;;;;;5061017;28;20336;-85
2023/07/31 05:21:42;;;;;;;16.15;6.60;;;16.70;99.90;;;;;;5068254;28;20196;-90
2023/07/31 05:24:45;;;;;;;22.17;6.80;;;16.80;99.90;;;;;;5148843;22;20305;-93
2023/07/31 05:27:52;;;;;;;25.23;6.77;;;16.80;99.90;;;;;;5063177;28;20256;-95
2023/07/31 05:31:03;;;;;;;21.60;7.32;;;16.80;99.90;;;;;;4985555;28;20214;-92
2023/07/31 05:33:42;;;;;;;13.98;6.32;;;16.70;99.90;;;;;;5001899;28;20230;-92
2023/07/31 05:40:10;;;;;;;19.63;6.70;;;16.70;99.90;;;;;;4988429;28;20234;-96
2023/07/31 05:42:55;;;;;;;14.65;5.32;;;16.70;99.90;;;;;;4963272;28;20251;-93
2023/07/31 05:45:57;;;;;;;21.58;6.40;;;16.60;99.90;;;;;;4972659;28;20243;-88
2023/07/31 05:49:30;;;;;;;18.40;6.78;;;16.60;99.90;;;;;;4978224;28;20206;-96
2023/07/31 05:52:23;;;;;;;16.65;6.15;;;16.60;99.90;;;;;;5088775;22;22085;-90
2023/07/31 05:55:54;;;;;;;21.10;7.00;;;16.60;99.90;;;;;;5067742;28;20760;-90
2023/07/31 06:15:59;;;;;;;17.17;5.80;;;16.50;99.90;;;;;;5055585;28;20196;-96
2023/07/31 06:22:19;;;;;;;14.65;6.35;;;16.60;99.90;;;;;;5831722;23;20295;-88
2023/07/31 06:29:22;;;;;;;;;;;;;;;;;;;;;
2023/07/31 06:34:54;;;;;;;9.10;4.75;;;16.70;99.90;;;;;;4991170;23;20247;-93
2023/07/31 06:37:43;;;;;;;7.75;4.43;;;16.80;99.90;;;;;;4996946;28;21050;-93
2023/07/31 06:40:13;;;;;;;8.55;5.20;;;16.80;99.90;;;;;;4996323;28;20270;-91
2023/07/31 06:43:07;;;;;;;7.20;3.97;;;16.80;99.90;;;;;;4994392;28;20305;-94
2023/07/31 06:45:45;;;;;;;7.15;3.97;;;16.90;99.90;;;;;;4995991;28;20696;-93
2023/07/31 06:48:30;;;;;;;5.53;3.83;;;16.90;99.90;;;;;;4981808;28;20709;-93
2023/07/31 06:50:58;;;;;;;7.35;4.25;;;17.00;99.90;;;;;;4995711;28;20273;-94
2023/07/31 06:53:45;;;;;;;8.07;4.07;;;17.00;99.90;;;;;;4994605;28;20211;-96
2023/07/31 06:56:49;;;;;;;8.93;4.40;;;17.10;99.90;;;;;;4997419;28;20199;-94
2023/07/31 07:00:06;;;;;;;7.07;3.55;;;17.00;99.90;;;;;;4994745;28;20278;-93
2023/07/31 07:03:19;;;;;;;;;;;;;;;;;;;;;
2023/07/31 07:06:32;;;;;;;5.63;3.22;;;17.10;99.90;;;;;;4973353;28;20255;-92
2023/07/31 07:09:21;;;;;;;6.57;3.33;;;17.10;99.90;;;;;;4992198;28;20246;-94
2023/07/31 07:12:18;;;;;;;5.53;2.83;;;17.10;99.90;;;;;;4993764;28;20291;-94
2023/07/31 07:14:54;;;;;;;7.30;3.35;;;17.20;99.90;;;;;;4980368;28;20199;-95
2023/07/31 07:18:03;;;;;;;5.25;2.97;;;17.20;99.90;;;;;;4993015;28;20282;-94
2023/07/31 07:20:54;;;;;;;5.93;3.30;;;17.30;99.90;;;;;;4983701;28;20208;-94
2023/07/31 07:23:45;;;;;;;5.82;2.90;;;17.30;99.90;;;;;;4985800;28;20570;-96
2023/07/31 07:26:38;;;;;;;4.68;3.00;;;17.40;99.90;;;;;;5002180;28;20671;-94
2023/07/31 07:29:27;;;;;;;;;;;;;;;;;;;;;
2023/07/31 07:32:46;;;;;;;4.13;2.17;;;17.40;99.90;;;;;;5002703;28;20294;-94
2023/07/31 07:35:50;;;;;;;6.35;2.60;;;17.50;99.90;;;;;;4996884;28;20306;-92
2023/07/31 07:42:03;;;;;;;3.88;2.35;;;17.50;99.90;;;;;;4909021;29;20210;-95
2023/07/31 07:45:02;;;;;;;4.43;2.10;;;17.60;99.90;;;;;;4974442;28;20242;-96
2023/07/31 07:47:52;;;;;;;3.97;2.10;;;17.60;99.90;;;;;;4984970;28;20210;-93
2023/07/31 07:50:41;;;;;;;2.28;1.80;;;17.70;99.90;;;;;;4986825;28;20203;-94
2023/07/31 07:53:18;;;;;;;5.20;2.40;;;17.60;99.90;;;;;;4999281;28;20293;-92
2023/07/31 07:56:25;;;;;;;3.92;2.47;;;17.60;99.90;;;;;;4990335;28;20207;-96
2023/07/31 07:59:15;;;;;;;;;;;;;;;;;;;;;
2023/07/31 08:02:14;;;;;;;2.78;2.15;;;17.60;99.90;;;;;;4988912;28;20227;-94
2023/07/31 08:04:56;;;;;;;2.85;1.95;;;17.70;99.90;;;;;;5001061;28;20290;-96
2023/07/31 08:07:46;;;;;;;1.90;1.73;;;17.70;99.90;;;;;;5005476;28;20223;-92
2023/07/31 08:10:39;;;;;;;3.20;1.77;;;17.70;99.90;;;;;;5005223;28;20262;-94
2023/07/31 08:13:33;;;;;;;2.35;1.50;;;17.80;99.90;;;;;;4963212;28;20204;-95
2023/07/31 08:16:23;;;;;;;1.88;1.40;;;18.00;99.90;;;;;;5001622;28;20245;-94
2023/07/31 08:18:53;;;;;;;2.28;1.50;;;17.90;99.90;;;;;;5009044;28;20203;-93
2023/07/31 08:21:30;;;;;;;1.95;1.52;;;17.90;99.90;;;;;;5007446;28;20210;-94
2023/07/31 08:24:01;;;;;;;2.38;1.60;;;17.90;99.90;;;;;;5006032;28;20213;-96
2023/07/31 08:26:53;;;;;;;3.92;2.05;;;17.80;99.90;;;;;;5002908;28;20238;-96
2023/07/31 08:29:27;;;;;;;3.55;2.17;;;17.90;99.90;;;;;;4996553;28;20259;-94
2023/07/31 08:31:58;;;;;;;2.67;2.03;;;17.90;99.90;;;;;;4996907;28;20203;-96
2023/07/31 08:34:29;;;;;;;2.30;1.80;;;18.00;99.90;;;;;;4996070;28;20235;-94
2023/07/31 08:36:58;;;;;;;3.25;2.42;;;17.90;99.90;;;;;;4995719;28;20204;-94
2023/07/31 08:42:52;;;;;;;2.78;2.20;;;18.10;99.90;;;;;;4991163;28;20211;-94
2023/07/31 08:45:22;;;;;;;3.10;2.20;;;18.10;99.90;;;;;;4994156;28;20221;-94
2023/07/31 08:47:59;;;;;;;2.78;2.30;;;18.20;99.90;;;;;;4999750;28;20286;-94
2023/07/31 08:50:48;;;;;;;2.75;2.45;;;18.30;99.90;;;;;;4999670;28;20262;-94
2023/07/31 08:53:47;;;;;;;3.00;2.40;;;18.30;99.90;;;;;;5000112;28;20274;-94
2023/07/31 08:56:35;;;;;;;2.75;2.45;;;18.30;99.90;;;;;;4996662;28;20292;-95
2023/07/31 08:59:21;;;;;;;3.47;2.70;;;18.20;99.90;;;;;;4992141;28;20622;-93
2023/07/31 09:01:57;;;;;;;2.72;2.30;;;18.30;99.90;;;;;;4993380;28;20207;-95
2023/07/31 09:05:33;;;;;;;5.55;2.70;;;18.30;99.90;;;;;;4998470;28;20231;-94
2023/07/31 09:08:28;;;;;;;2.80;2.50;;;18.40;99.90;;;;;;4982984;28;20215;-92
2023/07/31 09:11:02;;;;;;;5.00;2.60;;;18.40;99.90;;;;;;4994222;28;20227;-94
2023/07/31 09:13:38;;;;;;;2.55;2.35;;;18.40;99.90;;;;;;4986031;28;20290;-95
2023/07/31 09:16:31;;;;;;;2.38;2.17;;;18.50;99.90;;;;;;4996866;28;20525;-94
2023/07/31 09:19:04;;;;;;;2.25;2.00;;;18.40;99.90;;;;;;4992960;28;20207;-93
2023/07/31 09:21:58;;;;;;;3.50;2.28;;;18.50;99.90;;;;;;4996943;28;20207;-93
2023/07/31 09:24:33;;;;;;;2.70;2.25;;;18.50;99.90;;;;;;4984793;28;20240;-94
2023/07/31 09:27:24;;;;;;;2.80;2.25;;;18.50;99.90;;;;;;4987769;28;20208;-93
2023/07/31 09:30:05;;;;;;;2.92;2.25;;;18.50;99.90;;;;;;4995043;28;20207;-94
2023/07/31 09:33:03;;;;;;;3.70;2.30;;;18.40;99.90;;;;;;4998462;28;20319;-95
2023/07/31 09:35:50;;;;;;;3.08;2.22;;;18.40;99.90;;;;;;4982455;28;20239;-94
2023/07/31 09:38:48;;;;;;;;;;;;;;;;;;;;;
2023/07/31 09:42:05;;;;;;;2.20;2.00;;;18.50;99.90;;;;;;4991763;28;20221;-94
2023/07/31 09:44:41;;;;;;;3.38;2.13;;;18.50;99.90;;;;;;4996047;28;20203;-96
2023/07/31 09:48:02;;;;;;;2.53;2.30;;;18.50;99.90;;;;;;5002751;28;20527;-94
2023/07/31 09:50:47;;;;;;;3.50;2.00;;;18.50;99.90;;;;;;5001657;28;20291;-93
2023/07/31 09:53:30;;;;;;;4.30;1.80;;;18.50;99.90;;;;;;5000047;28;20246;-91
2023/07/31 09:56:07;;;;;;;3.55;2.35;;;18.70;99.90;;;;;;4999106;28;20207;-92
2023/07/31 09:58:44;;;;;;;2.83;2.30;;;18.70;99.90;;;;;;4986984;28;20207;-93
2023/07/31 10:04:23;;;;;;;2.45;2.25;;;18.70;99.90;;;;;;4988144;28;20196;-92
2023/07/31 10:07:11;;;;;;;2.70;2.25;;;18.70;99.90;;;;;;4999079;28;20259;-94
2023/07/31 10:09:59;;;;;;;;;;;;;;;;;;;;;
2023/07/31 10:13:27;;;;;;;2.58;2.22;;;18.60;99.90;;;;;;4989163;28;20199;-93
2023/07/31 10:16:15;;;;;;;3.13;2.40;;;18.60;99.90;;;;;;4996304;28;20213;-94
2023/07/31 10:18:56;;;;;;;3.15;2.85;;;18.70;99.90;;;;;;4999610;28;20247;-94
2023/07/31 10:21:29;;;;;;;3.92;3.17;;;18.70;99.90;;;;;;4990611;28;20250;-92
2023/07/31 10:24:12;;;;;;;4.05;3.13;;;18.70;99.90;;;;;;4992166;28;20247;-91
2023/07/31 10:26:40;;;;;;;7.00;3.45;;;18.80;99.90;;;;;;4998596;28;20363;-94
2023/07/31 10:29:24;;;;;;;;;;;;;;;;;;;;;
2023/07/31 10:32:10;;;;;;;6.60;3.83;;;19.00;99.90;;;;;;5004010;28;20222;-91
2023/07/31 10:34:41;;;;;;;5.28;3.47;;;19.00;99.90;;;;;;4994374;28;20275;-89
2023/07/31 10:37:29;;;;;;;5.03;3.70;;;19.00;99.90;;;;;;4996526;28;20238;-87
2023/07/31 10:40:25;;;;;;;7.82;4.40;;;19.00;99.90;;;;;;4999745;28;20306;-89
2023/07/31 10:43:00;;;;;;;4.40;4.00;;;19.00;99.90;;;;;;4994673;28;20219;-90
2023/07/31 10:45:36;;;;;;;5.95;4.60;;;19.10;99.90;;;;;;4993303;28;20215;-89
2023/07/31 10:48:17;;;;;;;6.40;4.63;;;19.00;99.90;;;;;;4997909;28;20250;-87
2023/07/31 10:50:50;;;;;;;6.00;4.55;;;19.10;99.90;;;;;;4988808;28;20588;-87
2023/07/31 10:53:31;;;;;;;6.40;4.72;;;19.20;99.90;;;;;;4978823;28;20189;-90
2023/07/31 10:56:03;;;;;;;7.13;5.57;;;19.10;99.90;;;;;;4989761;28;20668;-86
2023/07/31 11:01:06;;;;;;;6.70;5.20;;;19.10;99.90;;;;;;5238633;23;20238;-86
2023/07/31 11:03:46;;;;;;;7.45;5.35;;;19.10;99.90;;;;;;5003735;28;20295;-88
2023/07/31 11:06:16;;;;;;;8.45;5.32;;;19.20;99.90;;;;;;5002073;28;20301;-86
2023/07/31 11:08:48;;;;;;;7.00;5.25;;;19.30;99.90;;;;;;5000195;28;20647;-87
2023/07/31 11:11:20;;;;;;;8.27;5.20;;;19.60;99.90;;;;;;5001307;28;20205;-85
2023/07/31 11:13:53;;;;;;;6.88;5.20;;;19.50;99.90;;;;;;5010446;28;20626;-88
2023/07/31 11:16:22;;;;;;;6.13;5.28;;;19.50;99.90;;;;;;5004104;28;20218;-87
2023/07/31 11:18:51;;;;;;;6.88;4.60;;;19.50;99.90;;;;;;5002946;28;20237;-86
2023/07/31 11:21:23;;;;;;;7.75;5.25;;;19.40;99.90;;;;;;4998079;28;20294;-85
2023/07/31 11:23:56;;;;;;;6.47;5.18;;;19.50;99.90;;;;;;5000347;28;20320;-86
2023/07/31 11:26:24;;;;;;;5.43;4.70;;;19.50;99.90;;;;;;4995709;28;20260;-84
2023/07/31 11:28:51;;;;;;;5.07;4.50;;;19.70;99.90;;;;;;4993285;28;20207;-85
2023/07/31 11:31:18;;;;;;;6.75;5.25;;;19.60;99.90;;;;;;4999442;28;20549;-83
2023/07/31 11:33:46;;;;;;;6.35;4.75;;;19.70;99.90;;;;;;4998101;28;20605;-83
2023/07/31 11:36:17;;;;;;;5.75;4.65;;;19.80;99.90;;;;;;5004725;28;20625;-84
2023/07/31 11:38:44;;;;;;;4.55;3.95;;;19.90;99.90;;;;;;5000056;28;20665;-84
2023/07/31 11:41:13;;;;;;;7.93;4.28;;;19.70;99.90;;;;;;5006817;28;20203;-84
2023/07/31 11:43:40;;;;;;;5.47;4.13;;;19.80;99.90;;;;;;4996760;28;20207;-85
2023/07/31 11:46:09;;;;;;;4.72;4.13;;;19.90;99.90;;;;;;4984585;28;20230;-84
2023/07/31 11:48:37;;;;;;;5.45;3.80;;;19.90;99.90;;;;;;5000616;28;20485;-83
2023/07/31 11:51:05;;;;;;;5.53;3.95;;;20.00;99.90;;;;;;4996117;28;20329;-84
2023/07/31 11:53:42;;;;;;;5.78;3.97;;;20.10;99.90;;;;;;5003737;28;20202;-84
2023/07/31 11:56:13;;;;;;;4.20;3.78;;;20.20;99.90;;;;;;5006665;28;20203;-83
2023/07/31 11:58:41;;;;;;;4.22;3.10;;;20.10;99.90;;;;;;5000444;28;20680;-84
2023/07/31 12:01:09;;;;;;;3.88;3.47;;;20.10;99.90;;;;;;4998234;28;20314;-84
2023/07/31 12:03:36;;;;;;;5.07;3.45;;;20.00;99.90;;;;;;5005353;28;20505;-84
2023/07/31 12:06:03;;;;;;;3.78;3.28;;;20.00;99.90;;;;;;4999447;28;20230;-85
2023/07/31 12:08:31;;;;;;;3.38;2.38;;;19.90;99.90;;;;;;5004647;28;20214;-86
2023/07/31 12:11:10;;;;;;;2.72;2.42;;;19.80;99.90;;;;;;5019990;28;20195;-87
2023/07/31 12:13:37;;;;;;;2.42;2.17;;;19.90;99.90;;;;;;5012672;28;20207;-86
2023/07/31 12:16:04;;;;;;;2.63;2.40;;;19.80;99.90;;;;;;4996446;28;20662;-88
2023/07/31 12:18:38;;;;;;;2.90;2.55;;;19.80;99.90;;;;;;5005153;28;20202;-84
2023/07/31 12:21:08;;;;;;;3.28;2.65;;;19.70;99.90;;;;;;5004725;28;20601;-84
2023/07/31 12:23:36;;;;;;;3.70;2.67;;;19.60;99.90;;;;;;5004343;28;20299;-86
2023/07/31 12:26:12;;;;;;;3.60;3.13;;;19.60;99.90;;;;;;5007897;28;20229;-88
2023/07/31 12:28:47;;;;;;;4.22;3.03;;;19.50;99.90;;;;;;5005066;28;20221;-87
2023/07/31 12:31:20;;;;;;;3.17;2.88;;;19.60;99.90;;;;;;5009997;28;20293;-89
2023/07/31 12:33:54;;;;;;;3.08;2.78;;;19.60;99.90;;;;;;5013400;28;20206;-88
2023/07/31 12:36:23;;;;;;;4.35;3.30;;;19.50;99.90;;;;;;5000588;28;20213;-86
2023/07/31 12:38:51;;;;;;;5.13;3.90;;;19.60;99.90;;;;;;5003551;28;20203;-89
2023/07/31 12:41:34;;;;;;;5.55;3.65;;;19.70;99.90;;;;;;5017773;28;20210;-88
2023/07/31 12:44:10;;;;;;;6.18;3.63;;;19.70;99.90;;;;;;5012973;28;20225;-87
2023/07/31 12:46:37;;;;;;;5.30;3.65;;;19.80;99.90;;;;;;5003569;28;20223;-89
2023/07/31 12:49:07;;;;;;;5.70;3.75;;;19.80;99.90;;;;;;4996884;28;20285;-87
2023/07/31 12:51:36;;;;;;;4.95;3.83;;;19.90;99.90;;;;;;5009655;28;20203;-88
2023/07/31 12:54:03;;;;;;;6.07;3.55;;;19.90;99.90;;;;;;4998890;28;20294;-85
2023/07/31 12:56:29;;;;;;;5.57;3.97;;;20.00;99.90;;;;;;5015192;28;20206;-89
2023/07/31 12:58:56;;;;;;;5.60;3.80;;;20.10;99.90;;;;;;5009076;28;20630;-86
2023/07/31 13:01:23;;;;;;;4.40;3.50;;;20.00;99.90;;;;;;5002178;28;20717;-87
2023/07/31 13:03:50;;;;;;;4.90;3.92;;;20.20;99.90;;;;;;4999524;28;20219;-87
2023/07/31 13:06:17;;;;;;;4.32;3.70;;;20.30;99.90;;;;;;5005689;28;20277;-87
2023/07/31 13:08:44;;;;;;;4.35;3.40;;;20.30;99.90;;;;;;4998685;28;20217;-87
2023/07/31 13:11:11;;;;;;;4.13;3.20;;;20.20;99.90;;;;;;5001859;28;20211;-85
2023/07/31 13:13:38;;;;;;;4.63;3.10;;;20.10;99.90;;;;;;5004215;28;20218;-85
2023/07/31 13:16:05;;;;;;;3.20;2.90;;;20.00;99.90;;;;;;5002292;28;20211;-87
2023/07/31 13:18:32;;;;;;;4.25;3.42;;;19.90;99.90;;;;;;4999279;28;20726;-87
2023/07/31 13:21:01;;;;;;;3.25;2.95;;;19.90;99.90;;;;;;5002853;28;20291;-84
2023/07/31 13:23:28;;;;;;;3.50;2.75;;;20.00;99.90;;;;;;5001112;28;20206;-87
2023/07/31 13:25:54;;;;;;;3.63;2.92;;;20.10;99.90;;;;;;4999500;28;20218;-86
2023/07/31 13:28:21;;;;;;;2.92;2.63;;;20.20;99.90;;;;;;5007797;28;20233;-86
2023/07/31 13:30:48;;;;;;;3.60;3.00;;;20.40;99.90;;;;;;4999411;28;20199;-83
2023/07/31 13:33:15;;;;;;;3.25;2.90;;;20.50;99.90;;;;;;4997305;28;20253;-84
2023/07/31 13:36:02;;;;;;;4.53;3.38;;;20.50;99.90;;;;;;4996542;28;20210;-84
2023/07/31 13:38:29;;;;;;;3.40;2.83;;;20.60;99.90;;;;;;5002146;28;20202;-84
2023/07/31 13:40:56;;;;;;;3.50;3.08;;;20.80;99.90;;;;;;5005409;28;20686;-83
2023/07/31 13:43:23;;;;;;;3.55;3.08;;;20.80;99.90;;;;;;5008324;28;20210;-86
2023/07/31 13:45:52;;;;;;;4.00;3.60;;;20.80;99.90;;;;;;5009987;28;20238;-87
2023/07/31 13:48:24;;;;;;;4.75;4.00;;;20.70;99.90;;;;;;5005022;28;20302;-86
2023/07/31 13:50:54;;;;;;;5.10;4.40;;;20.70;99.90;;;;;;5014420;28;20313;-87
2023/07/31 13:53:21;;;;;;;9.20;5.18;;;20.50;99.90;;;;;;5009140;28;20321;-84
2023/07/31 13:55:49;;;;;;;5.10;4.50;;;20.50;99.90;;;;;;5004602;28;20518;-89
2023/07/31 13:58:16;;;;;;;6.65;4.80;;;20.60;99.90;;;;;;5012737;28;20237;-84
2023/07/31 14:00:42;;;;;;;5.32;4.82;;;20.60;99.90;;;;;;5024992;28;20238;-84
2023/07/31 14:03:09;;;;;;;5.55;4.70;;;20.70;99.90;;;;;;5010856;28;20827;-86
2023/07/31 14:05:37;;;;;;;6.03;4.75;;;20.60;99.90;;;;;;5006933;28;20198;-84
2023/07/31 14:08:04;;;;;;;7.35;4.72;;;20.60;99.90;;;;;;4997908;28;20198;-83
2023/07/31 14:10:30;;;;;;;6.47;4.72;;;20.70;99.90;;;;;;5008757;28;20566;-84
2023/07/31 14:12:57;;;;;;;6.30;4.93;;;20.70;99.90;;;;;;5008206;28;20237;-86
2023/07/31 14:15:24;;;;;;;6.85;5.18;;;20.60;99.90;;;;;;5007861;28;20194;-89
2023/07/31 14:17:54;;;;;;;6.53;5.07;;;20.50;99.90;;;;;;5013778;28;20970;-89
2023/07/31 14:20:27;;;;;;;6.95;5.40;;;20.60;99.90;;;;;;5012306;28;20236;-89
2023/07/31 14:22:55;;;;;;;6.05;4.88;;;20.50;99.90;;;;;;5011290;28;20222;-89
2023/07/31 14:25:22;;;;;;;6.45;4.60;;;20.40;99.90;;;;;;5014599;28;20567;-85
2023/07/31 14:27:49;;;;;;;6.30;4.80;;;20.30;99.90;;;;;;5014223;28;20253;-86
2023/07/31 14:30:18;;;;;;;4.70;4.18;;;20.20;99.90;;;;;;5012254;28;20312;-86